Time;durP1;ratioP1;P1;durP2;ratioP2;P2;SDS_P1;SDS_P2;PMS_P1;PMS_P2;Temp;Humidity;BMP_temperature;BMP_pressure;BME280_temperature;BME280_humidity;BME280_pressure;Samples;Min_cycle;Max_cycle;Signal;HPM_P1;HPM_P2
2021/11/24 00:00:38;;;;;;;17.80;14.97;;;;;;;8.72;82.27;102206.84;5039609;28;20603;-71
2021/11/24 00:03:04;;;;;;;17.20;15.40;;;;;;;8.52;83.58;102211.22;5039697;28;20257;-70
2021/11/24 00:05:29;;;;;;;22.30;17.50;;;;;;;8.56;82.93;102214.00;5040191;28;20245;-70
2021/11/24 00:07:55;;;;;;;21.43;16.07;;;;;;;8.51;82.57;102206.84;5039632;28;20453;-70
2021/11/24 00:10:20;;;;;;;19.53;15.10;;;;;;;8.43;84.48;102209.97;5039688;28;20166;-68
2021/11/24 00:12:46;;;;;;;18.27;14.47;;;;;;;8.17;84.23;102215.75;5039985;28;20241;-71
2021/11/24 00:15:12;;;;;;;17.20;15.20;;;;;;;8.19;84.01;102214.13;5022417;28;20197;-70
2021/11/24 00:17:38;;;;;;;18.27;15.67;;;;;;;8.38;83.89;102205.41;5039520;28;20408;-70
2021/11/24 00:20:05;;;;;;;19.53;15.03;;;;;;;7.93;84.43;102213.88;5022906;28;20254;-70
2021/11/24 00:22:31;;;;;;;19.00;16.17;;;;;;;8.30;83.70;102215.47;5039208;28;20808;-70
2021/11/24 00:24:56;;;;;;;19.30;15.10;;;;;;;8.36;83.41;102210.56;5039373;28;20413;-70
2021/11/24 00:27:22;;;;;;;20.53;16.83;;;;;;;8.58;82.15;102203.69;5039896;28;20169;-70
2021/11/24 00:29:49;;;;;;;22.33;15.70;;;;;;;8.54;82.46;102213.06;5039458;28;20163;-70
2021/11/24 00:32:15;;;;;;;23.87;17.40;;;;;;;8.15;84.23;102207.03;5039290;28;20181;-69
2021/11/24 00:34:40;;;;;;;40.23;26.90;;;;;;;8.36;84.00;102207.94;5039790;28;20405;-70
2021/11/24 00:37:06;;;;;;;23.47;18.67;;;;;;;8.24;84.36;102208.31;5039125;28;20257;-70
2021/11/24 00:39:31;;;;;;;20.10;17.27;;;;;;;8.69;81.99;102212.81;5039315;28;20166;-70
2021/11/24 00:41:56;;;;;;;21.27;17.70;;;;;;;8.45;83.36;102196.16;5039509;28;20166;-70
2021/11/24 00:44:22;;;;;;;25.37;17.03;;;;;;;8.33;83.93;102201.72;5039213;28;20478;-70
2021/11/24 00:46:47;;;;;;;24.07;17.27;;;;;;;8.31;83.11;102195.56;5038872;28;20426;-69
2021/11/24 00:49:12;;;;;;;22.20;17.10;;;;;;;8.33;83.09;102202.59;5039677;28;20168;-70
2021/11/24 00:51:38;;;;;;;22.43;16.77;;;;;;;8.45;82.64;102197.06;5038928;28;20269;-70
2021/11/24 00:54:04;;;;;;;21.13;16.40;;;;;;;8.20;83.79;102201.19;5054982;28;20224;-69
2021/11/24 00:56:29;;;;;;;19.30;15.90;;;;;;;8.03;84.52;102204.78;5059464;28;20174;-70
2021/11/24 00:58:55;;;;;;;21.03;16.80;;;;;;;8.06;84.81;102200.63;5058448;28;20272;-69
2021/11/24 01:01:20;;;;;;;20.37;16.40;;;;;;;8.53;83.87;102200.00;5058536;28;20181;-70
2021/11/24 01:03:46;;;;;;;17.43;15.53;;;;;;;8.58;83.55;102188.09;5059207;28;20252;-70
2021/11/24 01:06:11;;;;;;;18.23;15.97;;;;;;;8.24;83.64;102191.81;5057928;28;20208;-70
2021/11/24 01:08:37;;;;;;;21.73;17.43;;;;;;;8.12;84.64;102202.59;5058509;28;20182;-70
2021/11/24 01:11:03;;;;;;;20.50;15.97;;;;;;;8.48;83.83;102191.13;5058938;28;20180;-69
2021/11/24 01:13:28;;;;;;;20.00;15.80;;;;;;;8.26;83.91;102184.97;5058494;28;20262;-70
2021/11/24 01:15:53;;;;;;;24.60;16.43;;;;;;;8.30;83.89;102181.69;5058352;28;20483;-70
2021/11/24 01:18:20;;;;;;;19.27;15.43;;;;;;;8.11;84.92;102184.34;5058966;28;20423;-70
2021/11/24 01:20:46;;;;;;;21.43;16.20;;;;;;;8.40;83.31;102178.66;5057575;28;20217;-70
2021/11/24 01:23:13;;;;;;;18.70;15.87;;;;;;;7.65;86.97;102172.81;5058258;28;20399;-69
2021/11/24 01:25:38;;;;;;;21.20;16.83;;;;;;;8.19;83.84;102177.75;5058674;28;20714;-71
2021/11/24 01:28:04;;;;;;;19.30;14.60;;;;;;;8.11;84.51;102169.63;5058751;28;20420;-70
2021/11/24 01:30:29;;;;;;;18.10;14.80;;;;;;;8.38;83.89;102172.50;5058404;28;20174;-70
2021/11/24 01:32:54;;;;;;;19.90;15.43;;;;;;;8.40;83.77;102168.28;5058739;28;20165;-71
2021/11/24 01:35:20;;;;;;;17.63;14.43;;;;;;;8.40;83.41;102167.38;5058494;28;20169;-70
2021/11/24 01:37:45;;;;;;;18.60;15.67;;;;;;;8.18;84.64;102170.78;5058359;28;20515;-71
2021/11/24 01:40:11;;;;;;;19.23;15.97;;;;;;;8.33;83.25;102167.94;5058528;28;20455;-70
2021/11/24 01:42:37;;;;;;;17.40;14.97;;;;;;;8.33;83.73;102171.41;5058061;28;20188;-69
2021/11/24 01:45:03;;;;;;;19.10;15.33;;;;;;;8.19;84.55;102162.19;5058316;28;20788;-69
2021/11/24 01:47:29;;;;;;;19.00;16.40;;;;;;;8.40;83.62;102156.97;5057754;28;20468;-69
2021/11/24 01:49:54;;;;;;;17.90;15.97;;;;;;;8.32;84.36;102159.28;5058126;28;20426;-70
2021/11/24 01:52:19;;;;;;;20.77;16.07;;;;;;;8.34;83.98;102155.00;5057676;28;20286;-69
2021/11/24 01:54:45;;;;;;;22.53;17.17;;;;;;;8.46;83.54;102162.47;5058414;28;20169;-69
2021/11/24 01:57:11;;;;;;;18.70;16.30;;;;;;;8.42;83.82;102156.22;5058134;28;20256;-69
2021/11/24 01:59:37;;;;;;;21.30;17.13;;;;;;;8.14;84.85;102159.38;5058482;28;20162;-70
2021/11/24 02:02:02;;;;;;;23.33;16.17;;;;;;;8.10;85.05;102157.47;5058311;28;20381;-69
2021/11/24 02:04:28;;;;;;;18.73;15.50;;;;;;;8.59;82.81;102162.16;5057901;28;20401;-70
2021/11/24 02:06:53;;;;;;;20.67;16.17;;;;;;;8.67;82.79;102149.44;5057762;28;20522;-69
2021/11/24 02:09:20;;;;;;;18.33;16.03;;;;;;;8.69;82.87;102153.00;5059125;28;20200;-69
2021/11/24 02:11:46;;;;;;;20.20;16.37;;;;;;;8.31;84.31;102148.78;5061705;28;20166;-70
2021/11/24 02:14:12;;;;;;;19.60;15.67;;;;;;;8.27;84.93;102147.78;5061839;28;20417;-70
2021/11/24 02:16:44;;;;;;;20.83;16.60;;;;;;;8.38;83.87;102141.31;5062289;28;20173;-70
2021/11/24 02:19:09;;;;;;;25.77;17.50;;;;;;;8.51;84.22;102140.16;5061697;28;20824;-70
2021/11/24 02:21:35;;;;;;;23.73;16.93;;;;;;;8.68;82.91;102143.41;5061130;28;20408;-70
2021/11/24 02:24:01;;;;;;;21.83;16.27;;;;;;;8.50;84.04;102142.69;5062015;28;20193;-70
2021/11/24 02:26:26;;;;;;;25.57;17.00;;;;;;;8.73;83.27;102131.50;5061517;28;20469;-70
2021/11/24 02:28:52;;;;;;;21.03;17.83;;;;;;;8.37;83.97;102133.47;5061473;28;20252;-69
2021/11/24 02:31:19;;;;;;;23.73;17.27;;;;;;;8.54;83.95;102119.47;5061896;28;20423;-69
2021/11/24 02:33:52;;;;;;;23.10;17.00;;;;;;;8.62;83.51;102116.28;5061468;28;20166;-70
2021/11/24 02:36:18;;;;;;;28.87;16.03;;;;;;;8.35;84.40;102117.81;5060694;28;20818;-69
2021/11/24 02:38:44;;;;;;;20.70;16.90;;;;;;;8.57;83.53;102122.19;5061340;28;20423;-70
2021/11/24 02:41:10;;;;;;;19.03;16.97;;;;;;;8.37;84.41;102118.75;5061116;28;20173;-70
2021/11/24 02:43:35;;;;;;;22.80;16.37;;;;;;;8.28;85.48;102110.59;5060875;28;20691;-70
2021/11/24 02:46:00;;;;;;;18.40;15.90;;;;;;;8.21;86.21;102109.47;5061116;28;20507;-69
2021/11/24 02:48:26;;;;;;;21.07;16.20;;;;;;;8.29;84.97;102106.28;5060972;28;20546;-70
2021/11/24 02:50:54;;;;;;;23.67;17.00;;;;;;;8.19;84.82;102099.84;5061318;28;20244;-69
2021/11/24 02:53:26;;;;;;;19.20;16.03;;;;;;;8.22;85.92;102106.00;5060668;28;20232;-70
2021/11/24 02:55:52;;;;;;;21.00;16.57;;;;;;;8.25;85.56;102108.75;5060838;28;20672;-70
2021/11/24 02:58:18;;;;;;;23.33;17.00;;;;;;;8.53;84.44;102101.22;5060860;28;20462;-70
2021/11/24 03:00:43;;;;;;;19.80;17.07;;;;;;;8.17;86.19;102101.47;5060980;28;20512;-69
2021/11/24 03:03:08;;;;;;;20.00;15.60;;;;;;;7.90;86.31;102102.97;5060875;28;20178;-70
2021/11/24 03:05:35;;;;;;;18.53;15.27;;;;;;;7.98;87.06;102112.78;5060650;28;20210;-69
2021/11/24 03:08:01;;;;;;;17.30;14.50;;;;;;;8.25;86.10;102100.06;5059992;28;20197;-69
2021/11/24 03:10:27;;;;;;;21.90;14.90;;;;;;;8.67;84.71;102093.97;5060997;28;20382;-70
2021/11/24 03:12:52;;;;;;;20.50;16.23;;;;;;;8.52;85.25;102091.66;5060448;28;20235;-70
2021/11/24 03:15:17;;;;;;;18.43;14.03;;;;;;;8.18;86.29;102092.84;5060824;28;20423;-69
2021/11/24 03:17:43;;;;;;;18.67;14.03;;;;;;;8.61;84.40;102084.22;5060853;28;20184;-69
2021/11/24 03:20:09;;;;;;;16.23;14.00;;;;;;;8.51;84.83;102082.06;5060059;28;20199;-69
2021/11/24 03:22:35;;;;;;;19.20;13.30;;;;;;;8.39;84.82;102072.94;5060421;28;20238;-69
2021/11/24 03:25:01;;;;;;;20.80;14.53;;;;;;;8.41;85.50;102063.47;5060699;28;20495;-69
2021/11/24 03:27:32;;;;;;;16.23;14.50;;;;;;;8.46;84.78;102068.00;5060358;28;20184;-69
2021/11/24 03:29:58;;;;;;;17.00;14.80;;;;;;;8.55;84.50;102060.56;5059710;28;20170;-70
2021/11/24 03:32:25;;;;;;;19.20;15.50;;;;;;;8.34;85.20;102063.19;5060660;28;20526;-69
2021/11/24 03:34:50;;;;;;;16.53;13.90;;;;;;;8.17;85.69;102063.41;5061054;28;20426;-69
2021/11/24 03:37:17;;;;;;;17.80;13.93;;;;;;;8.55;85.92;102070.97;5060483;28;20812;-69
2021/11/24 03:39:43;;;;;;;21.33;15.10;;;;;;;8.23;85.16;102061.03;5060613;28;20166;-70
2021/11/24 03:42:08;;;;;;;18.50;14.20;;;;;;;8.50;84.69;102062.13;5060304;28;20420;-69
2021/11/24 03:44:34;;;;;;;16.00;13.37;;;;;;;8.56;85.54;102064.94;5060057;28;20261;-69
2021/11/24 03:46:59;;;;;;;18.90;15.07;;;;;;;8.59;84.96;102059.88;5060291;28;20197;-69
2021/11/24 03:49:24;;;;;;;17.23;13.17;;;;;;;8.21;86.19;102061.78;5059884;28;20265;-69
2021/11/24 03:51:51;;;;;;;19.23;15.00;;;;;;;8.29;85.79;102059.53;5059615;28;20567;-68
2021/11/24 03:54:16;;;;;;;15.80;13.50;;;;;;;8.37;86.05;102056.38;5059512;28;20265;-68
2021/11/24 03:56:42;;;;;;;18.27;14.57;;;;;;;8.48;85.22;102072.44;5059142;28;20477;-69
2021/11/24 03:59:07;;;;;;;16.17;13.97;;;;;;;8.61;84.72;102058.22;5059614;28;20178;-69
2021/11/24 04:01:32;;;;;;;19.90;14.70;;;;;;;8.73;84.97;102061.28;5059891;28;20283;-69
2021/11/24 04:03:58;;;;;;;16.77;14.80;;;;;;;8.81;84.25;102052.91;5058832;28;20272;-70
2021/11/24 04:06:26;;;;;;;15.67;13.47;;;;;;;8.73;84.62;102053.50;5059646;28;20205;-69
2021/11/24 04:08:51;;;;;;;15.07;12.93;;;;;;;8.42;85.72;102049.66;5059878;28;20170;-69
2021/11/24 04:11:16;;;;;;;20.43;14.30;;;;;;;8.73;84.53;102053.50;5059332;28;20522;-71
2021/11/24 04:13:42;;;;;;;16.07;12.90;;;;;;;8.59;84.92;102054.66;5059442;28;20475;-69
2021/11/24 04:16:07;;;;;;;17.47;13.57;;;;;;;8.58;85.59;102052.91;5060205;28;20402;-69
2021/11/24 04:18:32;;;;;;;15.83;13.90;;;;;;;8.46;86.48;102047.22;5059398;28;20192;-69
2021/11/24 04:20:58;;;;;;;15.83;12.70;;;;;;;8.29;86.00;102050.00;5059412;28;20197;-70
2021/11/24 04:23:23;;;;;;;14.30;12.70;;;;;;;8.44;86.30;102049.72;5059660;28;20203;-69
2021/11/24 04:25:49;;;;;;;17.17;13.53;;;;;;;8.85;84.44;102052.19;5059161;28;20255;-70
2021/11/24 04:28:14;;;;;;;15.70;13.50;;;;;;;8.52;85.30;102052.66;5059199;28;20528;-70
2021/11/24 04:30:39;;;;;;;15.57;13.97;;;;;;;8.45;85.98;102048.94;5059963;28;20177;-70
2021/11/24 04:33:05;;;;;;;14.97;12.83;;;;;;;8.47;85.05;102046.41;5058180;28;20264;-69
2021/11/24 04:35:30;;;;;;;16.13;14.40;;;;;;;8.64;85.14;102047.06;5059203;28;20173;-70
2021/11/24 04:37:56;;;;;;;15.03;13.43;;;;;;;8.58;85.28;102042.53;5059582;28;20174;-69
2021/11/24 04:40:21;;;;;;;17.27;13.20;;;;;;;8.71;84.45;102042.16;5058488;28;20535;-70
2021/11/24 04:42:48;;;;;;;15.73;13.87;;;;;;;8.48;86.18;102040.38;5058924;28;20208;-70
2021/11/24 04:45:13;;;;;;;15.90;13.27;;;;;;;8.50;85.10;102044.81;5059595;28;20459;-68
2021/11/24 04:47:39;;;;;;;18.50;13.93;;;;;;;8.46;85.29;102050.72;5058744;28;20395;-70
2021/11/24 04:50:05;;;;;;;16.60;14.47;;;;;;;8.83;85.18;102039.13;5058742;28;20202;-70
2021/11/24 04:52:30;;;;;;;17.60;14.27;;;;;;;8.68;84.73;102033.34;5058820;28;20232;-70
2021/11/24 04:54:55;;;;;;;17.33;14.77;;;;;;;8.79;84.26;102036.38;5058013;28;20231;-70
2021/11/24 04:57:21;;;;;;;16.20;13.70;;;;;;;8.32;86.15;102033.66;5058801;28;20173;-69
2021/11/24 04:59:47;;;;;;;17.17;14.47;;;;;;;8.43;86.07;102032.38;5058516;28;20181;-71
2021/11/24 05:02:12;;;;;;;15.57;13.90;;;;;;;8.70;85.43;102021.28;5058323;28;20170;-69
2021/11/24 05:04:38;;;;;;;14.43;12.93;;;;;;;8.65;85.64;102023.72;5058866;28;20453;-69
2021/11/24 05:07:03;;;;;;;14.10;12.60;;;;;;;8.61;85.62;102019.22;5058252;28;20206;-70
2021/11/24 05:09:28;;;;;;;13.53;11.70;;;;;;;8.49;85.47;102021.38;5058381;28;20178;-70
2021/11/24 05:11:54;;;;;;;13.57;12.17;;;;;;;8.68;84.59;102013.44;5058593;28;20177;-69
2021/11/24 05:14:25;;;;;;;21.80;13.47;;;;;;;8.68;84.85;102013.44;5058265;28;20603;-70
2021/11/24 05:16:55;;;;;;;14.97;13.00;;;;;;;8.54;85.71;102012.03;5058888;28;20169;-70
2021/11/24 05:19:21;;;;;;;16.00;13.90;;;;;;;8.71;84.77;102016.16;5058388;28;20416;-70
2021/11/24 05:21:51;;;;;;;16.60;14.70;;;;;;;8.60;85.33;102017.47;5058307;28;20390;-69
2021/11/24 05:24:17;;;;;;;15.70;13.47;;;;;;;8.73;84.85;102017.09;5058576;28;20443;-70
2021/11/24 05:26:43;;;;;;;15.87;13.13;;;;;;;8.18;85.87;102018.38;5058088;28;20434;-70
2021/11/24 05:29:08;;;;;;;15.20;13.60;;;;;;;8.73;85.01;102017.09;5057373;28;20394;-70
2021/11/24 05:31:34;;;;;;;15.60;13.87;;;;;;;8.71;84.60;102018.78;5058762;28;20432;-70
2021/11/24 05:34:00;;;;;;;16.47;14.30;;;;;;;8.53;85.78;102010.25;5058166;28;20177;-71
2021/11/24 05:36:25;;;;;;;16.20;14.00;;;;;;;8.35;85.12;102016.47;5058083;28;20315;-70
2021/11/24 05:38:51;;;;;;;16.90;12.93;;;;;;;8.36;85.95;102020.84;5058605;28;20495;-69
2021/11/24 05:41:16;;;;;;;18.70;15.73;;;;;;;8.52;86.06;102011.06;5057815;28;20172;-69
2021/11/24 05:43:42;;;;;;;15.13;13.47;;;;;;;8.59;85.15;102015.69;5057916;28;20166;-69
2021/11/24 05:46:12;;;;;;;14.23;12.43;;;;;;;8.21;85.62;102017.63;5058474;28;20189;-69
2021/11/24 05:48:38;;;;;;;14.37;12.87;;;;;;;8.28;86.44;102027.47;5058090;28;20249;-70
2021/11/24 05:51:03;;;;;;;17.33;13.30;;;;;;;8.32;86.06;102018.97;5057543;28;20528;-70
2021/11/24 05:53:28;;;;;;;16.83;14.60;;;;;;;8.38;85.22;102020.91;5057606;28;20460;-70
2021/11/24 05:55:54;;;;;;;17.87;14.50;;;;;;;8.47;85.54;102015.22;5057761;28;20180;-68
2021/11/24 05:58:21;;;;;;;19.63;14.20;;;;;;;8.72;84.07;102017.91;5057294;28;20543;-70
2021/11/24 06:00:46;;;;;;;18.80;15.63;;;;;;;8.53;84.67;102016.34;5057770;28;20174;-70
2021/11/24 06:03:12;;;;;;;22.07;17.37;;;;;;;8.80;83.44;102012.16;5057595;28;20701;-70
2021/11/24 06:05:38;;;;;;;18.40;16.10;;;;;;;8.37;85.60;102007.00;5058153;28;20551;-69
2021/11/24 06:08:03;;;;;;;18.60;16.33;;;;;;;8.59;84.15;102005.28;5057782;28;20169;-70
2021/11/24 06:10:29;;;;;;;19.87;16.97;;;;;;;8.46;84.40;102000.44;5057593;28;20550;-70
2021/11/24 06:12:54;;;;;;;22.43;17.50;;;;;;;8.16;85.51;102001.88;5058117;28;20162;-69
2021/11/24 06:15:20;;;;;;;24.43;17.90;;;;;;;8.46;85.59;102001.34;5057735;28;20176;-70
2021/11/24 06:17:46;;;;;;;20.60;15.80;;;;;;;8.56;84.86;101997.38;5057661;28;20227;-70
2021/11/24 06:20:13;;;;;;;20.00;17.23;;;;;;;8.43;85.06;102001.19;5058041;28;20166;-70
2021/11/24 06:22:40;;;;;;;22.47;15.50;;;;;;;8.41;84.98;101998.50;5057359;28;20671;-70
2021/11/24 06:25:07;;;;;;;19.30;16.33;;;;;;;8.90;83.78;102004.75;5056310;28;20689;-70
2021/11/24 06:27:32;;;;;;;18.17;16.27;;;;;;;8.83;83.49;102007.03;5057865;28;20383;-69
2021/11/24 06:29:57;;;;;;;18.20;15.50;;;;;;;8.69;83.77;102004.81;5057304;28;20408;-67
2021/11/24 06:32:23;;;;;;;19.57;16.03;;;;;;;8.81;83.32;102003.50;5057356;28;20222;-69
2021/11/24 06:34:48;;;;;;;16.93;14.73;;;;;;;8.51;84.83;102002.41;5057882;28;20172;-70
2021/11/24 06:37:13;;;;;;;17.47;14.60;;;;;;;8.62;83.71;102007.13;5057293;28;20166;-69
2021/11/24 06:39:39;;;;;;;19.03;14.73;;;;;;;8.10;86.13;102006.81;5057353;28;20177;-68
2021/11/24 06:42:04;;;;;;;19.00;14.77;;;;;;;8.34;85.70;102006.03;5057619;28;20166;-70
2021/11/24 06:44:30;;;;;;;19.97;16.77;;;;;;;8.20;85.25;101997.66;5057339;28;20176;-70
2021/11/24 06:46:55;;;;;;;20.10;17.47;;;;;;;8.45;84.54;101998.66;5057439;28;20589;-70
2021/11/24 06:49:21;;;;;;;20.33;15.60;;;;;;;8.43;84.74;101998.59;5057627;28;20161;-70
2021/11/24 06:51:46;;;;;;;20.70;17.10;;;;;;;8.37;85.19;101996.63;5057025;28;20204;-70
2021/11/24 06:54:11;;;;;;;25.00;18.07;;;;;;;8.33;85.50;101999.06;5056929;28;20253;-70
2021/11/24 06:56:37;;;;;;;24.30;18.47;;;;;;;8.19;85.74;101998.53;5059912;28;20497;-70
2021/11/24 06:59:04;;;;;;;19.93;16.53;;;;;;;7.81;86.65;101997.84;5060969;28;20169;-69
2021/11/24 07:01:29;;;;;;;25.30;19.40;;;;;;;8.41;85.26;101997.63;5060672;28;20169;-68
2021/11/24 07:03:54;;;;;;;22.97;16.60;;;;;;;8.18;85.68;101996.75;5061009;28;20444;-67
2021/11/24 07:06:20;;;;;;;24.63;18.80;;;;;;;8.50;84.84;102000.63;5060703;28;20225;-67
2021/11/24 07:08:45;;;;;;;24.73;19.10;;;;;;;8.46;84.57;101993.53;5060635;28;20220;-67
2021/11/24 07:11:11;;;;;;;31.27;19.60;;;;;;;8.00;87.07;101997.78;5061059;28;20276;-67
2021/11/24 07:13:36;;;;;;;26.00;19.63;;;;;;;8.23;85.41;101995.22;5060568;28;20211;-67
2021/11/24 07:16:01;;;;;;;22.40;17.67;;;;;;;7.95;86.50;101991.50;5060481;28;20166;-67
2021/11/24 07:18:27;;;;;;;29.17;19.00;;;;;;;8.13;86.57;101995.66;5060934;28;20180;-69
2021/11/24 07:20:52;;;;;;;26.23;19.27;;;;;;;8.38;85.30;101988.00;5060430;28;20166;-68
2021/11/24 07:23:17;;;;;;;21.40;17.20;;;;;;;8.26;85.45;101995.31;5059391;28;20172;-68
2021/11/24 07:25:43;;;;;;;23.60;17.77;;;;;;;8.56;85.88;101992.19;5060892;28;20204;-68
2021/11/24 07:28:08;;;;;;;25.50;19.00;;;;;;;8.52;84.10;101990.28;5059598;28;20166;-68
2021/11/24 07:30:34;;;;;;;23.53;16.90;;;;;;;8.34;84.59;101986.13;5060209;28;20558;-69
2021/11/24 07:32:59;;;;;;;22.60;17.63;;;;;;;8.48;84.89;101993.59;5060732;28;20180;-70
2021/11/24 07:35:24;;;;;;;23.40;16.90;;;;;;;8.42;85.79;101992.50;5060252;28;20178;-69
2021/11/24 07:37:50;;;;;;;21.50;16.90;;;;;;;8.48;83.74;101991.00;5060129;28;20453;-68
2021/11/24 07:40:16;;;;;;;23.00;16.70;;;;;;;8.69;83.20;101991.81;5060844;28;20168;-68
2021/11/24 07:42:42;;;;;;;21.60;17.20;;;;;;;8.41;83.91;101985.50;5059790;28;20250;-67
2021/11/24 07:45:08;;;;;;;19.27;15.73;;;;;;;8.49;84.82;101984.97;5060049;28;20167;-69
2021/11/24 07:47:34;;;;;;;37.87;24.87;;;;;;;8.72;83.29;101993.66;5061142;28;20412;-69
2021/11/24 07:50:02;;;;;;;21.57;15.83;;;;;;;7.97;85.21;101989.88;5059923;28;20204;-69
2021/11/24 07:52:28;;;;;;;21.30;15.90;;;;;;;8.32;84.94;101986.88;5060398;28;20221;-68
2021/11/24 07:54:53;;;;;;;24.63;17.10;;;;;;;8.47;83.71;101991.81;5061172;28;20748;-68
2021/11/24 07:57:20;;;;;;;19.60;14.87;;;;;;;8.19;84.58;101991.59;5059752;28;20243;-67
2021/11/24 07:59:45;;;;;;;21.67;15.20;;;;;;;8.11;85.33;101987.81;5060136;28;20176;-67
2021/11/24 08:02:11;;;;;;;15.70;11.43;;;;;;;10.21;87.62;101978.75;5059939;28;20379;-60
2021/11/24 08:04:36;;;;;;;19.80;15.63;;;;;;;11.69;76.80;101967.25;5059760;28;20166;-61
2021/11/24 08:07:03;;;;;;;22.00;13.00;;;;;;;12.59;72.86;101974.53;5058260;28;20204;-58
2021/11/24 08:09:30;;;;;;;14.20;11.80;;;;;;;10.20;73.52;101982.19;5060099;28;20177;-72
2021/11/24 08:11:58;;;;;;;16.47;12.70;;;;;;;8.89;79.63;101986.44;5051961;28;20498;-72
2021/11/24 08:14:23;;;;;;;18.37;13.93;;;;;;;8.99;80.26;101983.38;5059309;28;20470;-75
2021/11/24 08:16:49;;;;;;;19.17;13.67;;;;;;;9.14;80.19;101974.34;5059827;28;20468;-75
2021/11/24 08:19:15;;;;;;;20.57;14.97;;;;;;;9.07;79.84;101976.72;5059204;28;20169;-74
2021/11/24 08:21:40;;;;;;;18.43;15.00;;;;;;;9.05;80.49;101982.69;5059042;28;20170;-75
2021/11/24 08:24:06;;;;;;;16.63;13.30;;;;;;;8.85;81.06;101987.16;5060099;28;20386;-75
2021/11/24 08:26:31;;;;;;;17.43;14.77;;;;;;;8.81;81.47;101985.28;5059190;28;20590;-73
2021/11/24 08:28:57;;;;;;;20.00;16.17;;;;;;;8.81;81.60;101985.28;5058360;28;20184;-75
2021/11/24 08:31:22;;;;;;;18.70;14.40;;;;;;;8.89;81.33;101981.25;5059362;28;20201;-73
2021/11/24 08:33:48;;;;;;;17.17;14.43;;;;;;;8.73;82.24;101978.09;5058371;28;20447;-73
2021/11/24 08:36:15;;;;;;;22.10;16.47;;;;;;;8.82;81.49;101974.06;5059090;28;20438;-73
2021/11/24 08:38:41;;;;;;;18.63;15.17;;;;;;;8.76;81.61;101978.19;5058484;28;20193;-73
2021/11/24 08:41:08;;;;;;;22.37;16.03;;;;;;;8.63;82.82;101968.16;5051243;28;20475;-72
2021/11/24 08:43:34;;;;;;;25.53;16.43;;;;;;;8.95;81.28;101971.09;5049174;28;20427;-73
2021/11/24 08:45:59;;;;;;;19.00;15.27;;;;;;;8.28;83.64;101970.31;5059839;28;20455;-72
2021/11/24 08:48:25;;;;;;;19.80;16.53;;;;;;;8.41;82.87;101972.53;5060352;28;20181;-73
2021/11/24 08:50:50;;;;;;;23.90;17.17;;;;;;;8.59;81.89;101976.69;5061514;28;20571;-73
2021/11/24 08:53:16;;;;;;;20.40;15.80;;;;;;;8.48;82.78;101975.41;5047811;28;20218;-74
2021/11/24 08:55:41;;;;;;;22.27;17.17;;;;;;;8.93;81.04;101973.63;5039244;28;20396;-74
2021/11/24 08:58:07;;;;;;;23.83;17.57;;;;;;;8.71;81.90;101963.25;5029479;28;20449;-71
2021/11/24 09:00:33;;;;;;;22.90;16.63;;;;;;;8.79;81.39;101963.56;5021795;28;20316;-73
2021/11/24 09:02:58;;;;;;;21.67;15.57;;;;;;;8.49;82.83;101972.84;4998668;28;20274;-74
2021/11/24 09:05:24;;;;;;;20.47;16.70;;;;;;;8.38;82.55;101976.75;5031219;28;20199;-73
2021/11/24 09:07:50;;;;;;;20.63;15.90;;;;;;;8.48;82.10;101967.59;5038529;28;20194;-73
2021/11/24 09:10:16;;;;;;;20.80;16.63;;;;;;;8.65;81.92;101965.66;5038503;28;20249;-73
2021/11/24 09:12:42;;;;;;;75.47;20.17;;;;;;;8.86;81.24;101965.53;5039794;28;20387;-73
2021/11/24 09:15:08;;;;;;;20.47;15.63;;;;;;;8.95;80.92;101971.09;5039061;28;20428;-73
2021/11/24 09:17:33;;;;;;;20.13;16.50;;;;;;;8.89;80.48;101968.25;5053922;28;20201;-75
2021/11/24 09:19:59;;;;;;;22.07;15.37;;;;;;;8.51;82.50;101965.13;5058160;28;20398;-73
2021/11/24 09:22:25;;;;;;;28.37;17.10;;;;;;;9.09;81.54;101958.56;5058263;28;20197;-75
2021/11/24 09:24:56;;;;;;;17.77;14.83;;;;;;;8.66;81.70;101968.31;5046087;28;20183;-75
2021/11/24 09:27:44;;;;;;;20.13;15.87;;;;;;;9.31;79.97;101951.50;5021383;28;20202;-74
2021/11/24 09:30:10;;;;;;;20.33;15.60;;;;;;;9.50;78.57;101951.31;5040572;28;20659;-71
2021/11/24 09:32:36;;;;;;;17.67;14.77;;;;;;;9.37;78.37;101952.59;5055519;28;20434;-71
2021/11/24 09:35:03;;;;;;;20.83;16.43;;;;;;;9.53;78.13;101948.81;5040385;28;20907;-71
2021/11/24 09:37:28;;;;;;;17.93;15.23;;;;;;;9.61;77.98;101952.53;5042125;28;20212;-70
2021/11/24 09:39:54;;;;;;;18.23;14.70;;;;;;;9.28;78.68;101949.69;5058017;28;20704;-71
2021/11/24 09:42:22;;;;;;;25.70;14.80;;;;;;;9.05;80.14;101951.47;5044308;28;20174;-74
2021/11/24 09:44:48;;;;;;;17.87;14.77;;;;;;;9.35;79.43;101943.88;5020989;28;20548;-73
2021/11/24 09:47:14;;;;;;;18.80;15.67;;;;;;;9.53;78.34;101940.13;5039021;28;20544;-71
2021/11/24 09:49:45;;;;;;;19.40;15.67;;;;;;;9.61;78.01;101936.06;5037881;28;20498;-73
2021/11/24 09:52:11;;;;;;;19.87;15.40;;;;;;;9.60;77.23;101931.66;5037987;28;20760;-74
2021/11/24 09:54:37;;;;;;;22.33;15.83;;;;;;;9.77;76.68;101927.91;5038789;28;20388;-74
2021/11/24 09:57:03;;;;;;;18.20;14.63;;;;;;;9.45;78.13;101926.84;5038033;28;20426;-70
2021/11/24 09:59:29;;;;;;;17.20;14.53;;;;;;;9.58;77.63;101922.94;5038127;28;20812;-71
2021/11/24 10:01:54;;;;;;;18.33;14.73;;;;;;;9.37;78.11;101923.97;5039742;28;20176;-72
2021/11/24 10:04:20;;;;;;;15.73;13.77;;;;;;;9.64;77.49;101915.31;5041003;28;20391;-73
2021/11/24 10:06:47;;;;;;;32.23;22.80;;;;;;;9.70;78.17;101907.72;5048060;28;20209;-74
2021/11/24 10:09:12;;;;;;;23.83;18.10;;;;;;;9.94;77.11;101907.59;5038838;28;20429;-75
2021/11/24 10:11:39;;;;;;;22.20;16.50;;;;;;;9.73;76.87;101901.72;5057613;28;20404;-74
2021/11/24 10:14:04;;;;;;;16.20;13.07;;;;;;;9.48;77.65;101908.72;5055323;28;20184;-73
2021/11/24 10:16:31;;;;;;;17.63;14.53;;;;;;;9.41;77.43;101907.63;5057928;28;20809;-73
2021/11/24 10:19:00;;;;;;;18.30;14.27;;;;;;;9.40;77.72;101903.28;5054494;28;20188;-75
2021/11/24 10:21:25;;;;;;;16.40;13.70;;;;;;;9.43;78.21;101899.84;5055744;28;20401;-70
2021/11/24 10:23:52;;;;;;;15.07;13.10;;;;;;;9.65;77.49;101904.06;5056062;28;20406;-71
2021/11/24 10:26:33;;;;;;;17.20;13.43;;;;;;;9.59;78.49;101909.06;5049956;28;20576;-73
2021/11/24 10:29:09;;;;;;;22.50;16.50;;;;;;;9.56;78.48;101895.97;5019672;28;20743;-74
2021/11/24 10:31:46;;;;;;;17.30;13.03;;;;;;;9.55;77.60;101896.78;5040354;28;20410;-72
2021/11/24 10:34:25;;;;;;;18.30;14.00;;;;;;;9.27;78.56;101894.16;5039067;28;20823;-73
2021/11/24 10:37:00;;;;;;;16.10;13.20;;;;;;;9.68;77.48;101880.72;5046578;28;20462;-73
2021/11/24 10:39:27;;;;;;;15.67;12.87;;;;;;;9.69;77.45;101882.50;5060454;28;20426;-72
2021/11/24 10:41:53;;;;;;;19.60;14.13;;;;;;;9.41;78.62;101883.31;5061944;28;20850;-71
2021/11/24 10:44:36;;;;;;;15.40;13.10;;;;;;;9.69;78.14;101868.59;5039190;28;20403;-75
2021/11/24 10:47:04;;;;;;;14.40;12.90;;;;;;;10.27;76.10;101869.47;5040414;28;20579;-71
2021/11/24 10:49:42;;;;;;;17.17;13.43;;;;;;;10.17;76.26;101863.09;5040950;28;20718;-74
2021/11/24 10:52:13;;;;;;;14.40;11.97;;;;;;;10.00;76.21;101864.31;5044074;28;20398;-72
2021/11/24 10:54:38;;;;;;;13.20;11.53;;;;;;;9.72;77.15;101861.75;5025988;28;20802;-73
2021/11/24 10:57:10;;;;;;;13.10;11.73;;;;;;;9.97;76.48;101862.50;5044309;28;20406;-73
2021/11/24 10:59:42;;;;;;;13.20;11.73;;;;;;;9.99;76.18;101859.97;5041838;28;20588;-71
2021/11/24 11:02:22;;;;;;;12.90;10.83;;;;;;;10.11;75.39;101848.16;5025136;28;20784;-72
2021/11/24 11:04:57;;;;;;;14.17;10.70;;;;;;;9.64;76.38;101850.22;5021168;28;20449;-72
2021/11/24 11:07:22;;;;;;;11.60;10.17;;;;;;;9.68;75.97;101846.88;5040588;28;20535;-71
2021/11/24 11:09:48;;;;;;;15.43;11.23;;;;;;;9.90;75.29;101847.53;5023513;28;20838;-75
2021/11/24 11:12:15;;;;;;;10.70;9.60;;;;;;;9.91;75.47;101842.38;5040805;28;20430;-74